Time;durP1;ratioP1;P1;durP2;ratioP2;P2;SDS_P1;SDS_P2;PMS_P1;PMS_P2;Temp;Humidity;BMP_temperature;BMP_pressure;BME280_temperature;BME280_humidity;BME280_pressure;Samples;Min_cycle;Max_cycle;Signal;HPM_P1;HPM_P2
2022/04/27 00:01:34;;;;;;;5.10;2.90;;;7.20;99.90;;;;;;5113411;28;20687;-72
2022/04/27 00:04:00;;;;;;;5.40;2.87;;;7.10;99.90;;;;;;5113946;28;20225;-71
2022/04/27 00:06:27;;;;;;;6.73;3.00;;;7.00;99.90;;;;;;5113906;27;20198;-72
2022/04/27 00:08:54;;;;;;;4.43;2.73;;;7.00;99.90;;;;;;5113543;28;20661;-71
2022/04/27 00:11:21;;;;;;;6.20;2.97;;;7.00;99.90;;;;;;5114682;28;20206;-70
2022/04/27 00:13:48;;;;;;;7.37;2.83;;;7.00;99.90;;;;;;5113503;28;20718;-71
2022/04/27 00:16:17;;;;;;;6.17;2.93;;;7.00;99.90;;;;;;5113640;27;20197;-71
2022/04/27 00:18:43;;;;;;;4.93;2.70;;;7.00;99.90;;;;;;5114409;28;20212;-70
2022/04/27 00:21:10;;;;;;;5.27;2.57;;;7.00;99.90;;;;;;5114510;28;20216;-71
2022/04/27 00:23:37;;;;;;;3.97;2.63;;;7.00;99.90;;;;;;5113996;28;20710;-71
2022/04/27 00:26:04;;;;;;;3.60;2.50;;;6.90;99.90;;;;;;5113790;28;20205;-71
2022/04/27 00:28:31;;;;;;;3.30;2.47;;;7.00;99.90;;;;;;5113799;28;20221;-70
2022/04/27 00:30:57;;;;;;;4.33;2.83;;;7.00;99.90;;;;;;5113923;27;20206;-69
2022/04/27 00:33:25;;;;;;;7.47;3.30;;;6.80;99.90;;;;;;5113599;28;20237;-70
2022/04/27 00:35:52;;;;;;;3.27;2.23;;;6.80;99.90;;;;;;5113570;28;20209;-69
2022/04/27 00:38:19;;;;;;;4.20;2.87;;;6.70;99.90;;;;;;5113209;28;20205;-72
2022/04/27 00:40:46;;;;;;;4.73;2.60;;;6.80;99.90;;;;;;5117558;27;20198;-69
2022/04/27 00:43:14;;;;;;;4.27;2.53;;;6.80;99.90;;;;;;5124845;27;20225;-72
2022/04/27 00:45:41;;;;;;;5.43;2.80;;;6.80;99.90;;;;;;5133511;27;20204;-72
2022/04/27 00:48:09;;;;;;;5.23;2.63;;;6.80;99.90;;;;;;5132872;27;20201;-71
2022/04/27 00:50:37;;;;;;;5.03;2.43;;;6.80;99.90;;;;;;5132907;27;20197;-71
2022/04/27 00:53:04;;;;;;;5.83;2.80;;;6.80;99.90;;;;;;5133912;27;20252;-71
2022/04/27 00:55:31;;;;;;;5.17;2.57;;;6.90;99.90;;;;;;5134546;27;20208;-72
2022/04/27 00:57:59;;;;;;;4.77;2.60;;;6.90;99.90;;;;;;5134033;27;20304;-72
2022/04/27 01:00:26;;;;;;;3.87;2.30;;;6.90;99.90;;;;;;5129865;27;20190;-70
2022/04/27 01:02:53;;;;;;;5.23;2.87;;;6.90;99.90;;;;;;5112712;28;20256;-71
2022/04/27 01:05:21;;;;;;;6.70;2.80;;;6.80;99.90;;;;;;5113680;28;20212;-70
2022/04/27 01:07:49;;;;;;;8.30;3.23;;;6.90;99.90;;;;;;5112973;27;20280;-72
2022/04/27 01:10:16;;;;;;;4.70;2.83;;;6.90;99.90;;;;;;5113751;28;20212;-71
2022/04/27 01:12:43;;;;;;;5.17;2.70;;;6.90;99.90;;;;;;5113378;28;20205;-72
2022/04/27 01:15:11;;;;;;;5.60;3.37;;;7.00;99.90;;;;;;5113903;28;20209;-71
2022/04/27 01:17:37;;;;;;;4.10;2.73;;;7.10;99.90;;;;;;5113162;27;20186;-71
2022/04/27 01:20:06;;;;;;;5.73;2.57;;;7.20;99.90;;;;;;5111798;28;20208;-72
2022/04/27 01:22:34;;;;;;;4.93;3.10;;;7.20;99.90;;;;;;5112827;28;20236;-71
2022/04/27 01:25:01;;;;;;;4.17;2.70;;;7.30;99.90;;;;;;5113267;28;20225;-72
2022/04/27 01:27:27;;;;;;;4.20;2.77;;;7.30;99.90;;;;;;5113535;28;20223;-69
2022/04/27 01:29:54;;;;;;;3.33;2.13;;;7.40;99.90;;;;;;5113136;28;20216;-71
2022/04/27 01:32:21;;;;;;;6.70;2.90;;;7.40;99.90;;;;;;5113828;28;20224;-70
2022/04/27 01:34:48;;;;;;;4.97;2.87;;;7.50;99.90;;;;;;5113009;28;20304;-71
2022/04/27 01:40:00;;;;;;;4.50;2.47;;;7.60;99.90;;;;;;5112504;28;20205;-69
2022/04/27 01:42:27;;;;;;;6.47;2.77;;;7.50;99.90;;;;;;5112865;28;20231;-72
2022/04/27 01:44:54;;;;;;;5.57;2.67;;;7.50;99.90;;;;;;5112973;28;20231;-72
2022/04/27 01:47:21;;;;;;;5.27;2.50;;;7.50;99.90;;;;;;5112941;28;20683;-72
2022/04/27 01:49:47;;;;;;;5.07;2.93;;;7.50;99.90;;;;;;5112991;28;20282;-71
2022/04/27 01:55:00;;;;;;;4.00;2.30;;;7.40;99.90;;;;;;5112427;28;20228;-71
2022/04/27 01:57:26;;;;;;;4.20;2.47;;;7.40;99.90;;;;;;5112872;28;20679;-71
2022/04/27 01:59:54;;;;;;;5.97;2.70;;;7.30;99.90;;;;;;5112857;28;20202;-71
2022/04/27 02:02:21;;;;;;;3.90;2.60;;;7.20;99.90;;;;;;5112872;28;20726;-69
2022/04/27 02:04:48;;;;;;;6.00;2.77;;;7.10;99.90;;;;;;5112009;28;20222;-71
2022/04/27 02:07:15;;;;;;;5.13;2.87;;;7.00;99.90;;;;;;5112692;28;20190;-70
2022/04/27 02:09:42;;;;;;;3.43;2.30;;;7.00;99.90;;;;;;5112397;28;20285;-72
2022/04/27 02:12:10;;;;;;;4.87;3.03;;;6.90;99.90;;;;;;5113595;28;20202;-72
2022/04/27 02:14:37;;;;;;;4.07;2.53;;;6.90;99.90;;;;;;5111984;28;20222;-68
2022/04/27 02:17:05;;;;;;;3.90;2.40;;;6.70;99.90;;;;;;5110903;28;20664;-70
2022/04/27 02:19:32;;;;;;;4.17;2.30;;;6.60;99.90;;;;;;5112431;28;20197;-69
2022/04/27 02:21:59;;;;;;;4.23;2.57;;;6.50;99.90;;;;;;5111732;28;20198;-69
2022/04/27 02:24:26;;;;;;;4.93;2.70;;;6.50;99.90;;;;;;5111639;28;20253;-71
2022/04/27 02:26:54;;;;;;;3.87;2.30;;;6.50;99.90;;;;;;5112877;28;20250;-69
2022/04/27 02:29:22;;;;;;;4.13;2.80;;;6.40;99.90;;;;;;5111673;28;20595;-69
2022/04/27 02:31:49;;;;;;;5.10;3.00;;;6.40;99.90;;;;;;5112777;28;20870;-70
2022/04/27 02:34:16;;;;;;;4.37;2.47;;;6.30;99.90;;;;;;5119231;28;20231;-69
2022/04/27 02:36:43;;;;;;;3.77;2.60;;;6.30;99.90;;;;;;5133048;28;20216;-71
2022/04/27 02:39:10;;;;;;;9.17;3.23;;;6.30;99.90;;;;;;5132398;28;20208;-69
2022/04/27 02:41:37;;;;;;;4.83;2.57;;;6.30;99.90;;;;;;5133182;28;20254;-69
2022/04/27 02:44:04;;;;;;;5.50;2.60;;;6.30;99.90;;;;;;5132603;28;20243;-71
2022/04/27 02:46:32;;;;;;;5.00;2.73;;;6.30;99.90;;;;;;5133206;28;20201;-71
2022/04/27 02:51:52;;;;;;;5.47;3.23;;;6.20;99.90;;;;;;5115493;27;20205;-71
2022/04/27 02:54:20;;;;;;;5.17;3.03;;;6.20;99.90;;;;;;5123736;27;20695;-69
2022/04/27 02:56:48;;;;;;;4.70;2.90;;;6.20;99.90;;;;;;5116114;28;20652;-70
2022/04/27 02:59:15;;;;;;;4.40;2.83;;;6.20;99.90;;;;;;5115931;28;20212;-71
2022/04/27 03:01:44;;;;;;;4.90;2.53;;;6.20;99.90;;;;;;5115992;28;20360;-69
2022/04/27 03:04:11;;;;;;;5.17;2.83;;;6.10;99.90;;;;;;5115524;28;20241;-69
2022/04/27 03:06:37;;;;;;;5.17;2.77;;;6.10;99.90;;;;;;5119912;27;20202;-71
2022/04/27 03:09:05;;;;;;;5.00;2.67;;;6.00;99.90;;;;;;5115711;28;20824;-71
2022/04/27 03:11:31;;;;;;;4.73;2.33;;;5.90;99.90;;;;;;5115430;28;20210;-71
2022/04/27 03:13:58;;;;;;;6.00;2.50;;;5.90;99.90;;;;;;5115245;28;20312;-69
2022/04/27 03:16:25;;;;;;;4.17;2.90;;;6.00;99.90;;;;;;5115625;28;20194;-70
2022/04/27 03:18:53;;;;;;;6.47;3.40;;;6.00;99.90;;;;;;5115899;28;20640;-72
2022/04/27 03:21:20;;;;;;;6.70;3.20;;;6.00;99.90;;;;;;5115018;28;20209;-69
2022/04/27 03:23:47;;;;;;;6.17;3.07;;;6.00;99.90;;;;;;5115215;28;20239;-71
2022/04/27 03:26:14;;;;;;;6.37;3.00;;;5.90;99.90;;;;;;5115443;28;20202;-72
2022/04/27 03:28:41;;;;;;;4.23;2.83;;;5.80;99.90;;;;;;5115182;28;20213;-69
2022/04/27 03:31:07;;;;;;;5.27;2.90;;;5.70;99.90;;;;;;5115576;28;20217;-74
2022/04/27 03:33:34;;;;;;;6.33;2.90;;;5.60;99.90;;;;;;5115228;28;20218;-74
2022/04/27 03:36:03;;;;;;;4.30;2.47;;;5.70;99.90;;;;;;5115099;28;20224;-69
2022/04/27 03:38:30;;;;;;;6.83;3.47;;;5.70;99.90;;;;;;5115009;27;20568;-70
2022/04/27 03:40:57;;;;;;;4.60;2.87;;;5.80;99.90;;;;;;5115332;28;20202;-71
2022/04/27 03:43:24;;;;;;;7.93;2.87;;;5.80;99.90;;;;;;5115204;28;20240;-72
2022/04/27 03:45:50;;;;;;;6.57;2.47;;;5.60;99.90;;;;;;5115476;28;20549;-71
2022/04/27 03:48:17;;;;;;;7.23;3.00;;;5.60;99.90;;;;;;5115231;28;20197;-71
2022/04/27 03:50:44;;;;;;;5.90;2.73;;;5.70;99.90;;;;;;5115658;27;20231;-71
2022/04/27 03:53:12;;;;;;;4.13;2.40;;;5.70;99.90;;;;;;5114970;28;20221;-71
2022/04/27 03:55:39;;;;;;;4.30;3.00;;;5.70;99.90;;;;;;5115125;28;20206;-72
2022/04/27 03:58:06;;;;;;;6.03;2.93;;;5.70;99.90;;;;;;5115113;28;20204;-72
2022/04/27 04:00:34;;;;;;;5.10;3.00;;;5.60;99.90;;;;;;5115399;28;20213;-69
2022/04/27 04:03:01;;;;;;;6.47;3.13;;;5.60;99.90;;;;;;5114825;28;20225;-71
2022/04/27 04:05:28;;;;;;;6.33;2.83;;;5.60;99.90;;;;;;5113284;28;20679;-71
2022/04/27 04:07:55;;;;;;;5.27;2.90;;;5.50;99.90;;;;;;5134752;27;20197;-69
2022/04/27 04:10:23;;;;;;;5.40;3.20;;;5.50;99.90;;;;;;5134275;27;20197;-70
2022/04/27 04:12:50;;;;;;;6.27;3.00;;;5.50;99.90;;;;;;5134709;27;20216;-69
2022/04/27 04:15:17;;;;;;;6.03;3.30;;;5.50;99.90;;;;;;5134342;27;20197;-70
2022/04/27 04:17:45;;;;;;;6.77;3.73;;;5.40;99.90;;;;;;5134720;27;20209;-71
2022/04/27 04:20:13;;;;;;;4.43;2.90;;;5.40;99.90;;;;;;5134673;27;20273;-69
2022/04/27 04:22:41;;;;;;;4.97;3.03;;;5.30;99.90;;;;;;5134740;27;20230;-71
2022/04/27 04:30:39;;;;;;;8.83;3.33;;;5.30;99.90;;;;;;5134230;27;20204;-71
2022/04/27 04:33:06;;;;;;;8.67;4.13;;;5.30;99.90;;;;;;5134041;27;20285;-69
2022/04/27 04:35:32;;;;;;;6.00;3.40;;;5.30;99.90;;;;;;5133898;27;20204;-70
2022/04/27 04:37:59;;;;;;;5.53;2.97;;;5.30;99.90;;;;;;5122374;27;20660;-71
2022/04/27 04:40:27;;;;;;;6.70;3.20;;;5.30;99.90;;;;;;5114610;28;20209;-71
2022/04/27 04:42:55;;;;;;;5.33;2.70;;;5.30;99.90;;;;;;5114186;28;20206;-70
2022/04/27 04:45:21;;;;;;;5.47;3.30;;;5.40;99.90;;;;;;5113495;28;20201;-69
2022/04/27 04:47:48;;;;;;;5.33;3.50;;;5.50;99.90;;;;;;5113656;28;20202;-69
2022/04/27 04:50:15;;;;;;;7.33;3.40;;;5.50;99.90;;;;;;5125924;27;20689;-71
2022/04/27 04:52:42;;;;;;;6.77;3.40;;;5.50;99.90;;;;;;5130358;27;20201;-71
2022/04/27 04:55:09;;;;;;;5.07;3.30;;;5.70;99.90;;;;;;5133238;27;20331;-72
2022/04/27 04:57:36;;;;;;;7.90;3.10;;;5.90;99.90;;;;;;5113670;28;20224;-72
2022/04/27 05:00:07;;;;;;;5.47;2.97;;;6.10;99.90;;;;;;5113549;28;20198;-71
2022/04/27 05:02:34;;;;;;;8.23;3.37;;;6.40;99.90;;;;;;5113208;28;20870;-71
2022/04/27 05:05:03;;;;;;;6.70;3.37;;;6.80;99.90;;;;;;5113689;28;20240;-72
2022/04/27 05:07:30;;;;;;;6.03;3.37;;;7.20;99.90;;;;;;5113815;27;20202;-72
2022/04/27 05:09:58;;;;;;;7.50;3.33;;;7.60;99.90;;;;;;5113030;28;20205;-71
2022/04/27 05:12:25;;;;;;;4.97;2.63;;;7.90;99.90;;;;;;5113034;28;20209;-71
2022/04/27 05:14:52;;;;;;;4.23;2.83;;;8.20;99.90;;;;;;5130737;27;20220;-71
2022/04/27 05:17:21;;;;;;;6.03;3.10;;;8.20;99.90;;;;;;5134219;27;20245;-71
2022/04/27 05:19:49;;;;;;;3.80;2.90;;;8.20;99.90;;;;;;5134155;27;20201;-72
2022/04/27 05:22:16;;;;;;;4.87;2.57;;;8.00;99.90;;;;;;5134216;27;20261;-69
2022/04/27 05:24:43;;;;;;;4.07;2.90;;;7.80;99.90;;;;;;5114069;27;20237;-71
2022/04/27 05:27:09;;;;;;;6.53;3.00;;;7.80;99.90;;;;;;5113334;28;20321;-71
2022/04/27 05:32:42;;;;;;;5.73;3.20;;;8.30;99.90;;;;;;5077798;28;20286;-72
2022/04/27 05:35:09;;;;;;;7.00;3.20;;;9.30;99.90;;;;;;5104754;28;20644;-70
2022/04/27 05:37:36;;;;;;;4.80;3.00;;;10.40;99.90;;;;;;5112333;28;20296;-70
2022/04/27 05:40:04;;;;;;;6.03;2.80;;;11.30;99.90;;;;;;5112494;28;20225;-70
2022/04/27 05:42:31;;;;;;;6.27;3.00;;;12.20;99.90;;;;;;5112864;28;20573;-70
2022/04/27 05:44:58;;;;;;;5.60;3.23;;;13.00;99.90;;;;;;5112899;28;20688;-70
2022/04/27 05:47:25;;;;;;;6.60;2.90;;;13.80;99.90;;;;;;5112827;28;20559;-71
2022/04/27 05:49:53;;;;;;;6.13;3.10;;;14.30;99.90;;;;;;5114885;28;20552;-70
2022/04/27 05:52:21;;;;;;;5.87;3.37;;;15.10;99.90;;;;;;5126628;27;20207;-70
2022/04/27 05:54:48;;;;;;;7.77;3.03;;;15.70;99.90;;;;;;5132729;27;20286;-71
2022/04/27 05:57:15;;;;;;;5.80;3.33;;;15.90;99.90;;;;;;5133454;27;20337;-71
2022/04/27 05:59:42;;;;;;;4.67;3.27;;;16.20;99.90;;;;;;5133320;27;20252;-71
2022/04/27 06:02:09;;;;;;;5.97;3.40;;;16.40;99.90;;;;;;5133732;28;20238;-71
2022/04/27 06:04:35;;;;;;;6.13;3.88;;;16.90;99.40;;;;;;5131494;28;20232;-69
2022/04/27 06:07:06;;;;;;;8.68;3.88;;;17.40;99.30;;;;;;5132713;28;20651;-70
2022/04/27 06:09:33;;;;;;;7.22;3.33;;;17.90;98.30;;;;;;5122213;28;20656;-71
2022/04/27 06:12:00;;;;;;;6.07;3.28;;;17.80;97.60;;;;;;5115281;27;20220;-71
2022/04/27 06:14:27;;;;;;;5.82;3.42;;;17.80;97.40;;;;;;5128582;28;20748;-71
2022/04/27 06:16:54;;;;;;;5.45;3.10;;;17.20;97.70;;;;;;5130893;27;20189;-71
2022/04/27 06:19:20;;;;;;;5.95;3.55;;;17.10;98.00;;;;;;5130270;28;20219;-72
2022/04/27 06:21:47;;;;;;;4.45;3.00;;;17.10;97.70;;;;;;5127854;27;20200;-70
2022/04/27 06:24:16;;;;;;;4.20;3.13;;;17.40;97.40;;;;;;5127182;27;20220;-71
2022/04/27 06:26:43;;;;;;;6.75;3.35;;;17.80;96.70;;;;;;5136429;27;20220;-71
2022/04/27 06:29:10;;;;;;;5.82;3.03;;;17.90;96.10;;;;;;5137003;27;20196;-72
2022/04/27 06:31:37;;;;;;;5.25;3.42;;;17.70;96.20;;;;;;5131846;27;20254;-72
2022/04/27 06:34:04;;;;;;;4.57;3.10;;;17.40;96.30;;;;;;5136087;27;20262;-72
2022/04/27 06:36:31;;;;;;;5.60;3.03;;;16.50;97.20;;;;;;5136368;27;20687;-71
2022/04/27 06:38:57;;;;;;;5.10;3.13;;;16.90;96.70;;;;;;5136856;27;20650;-72
2022/04/27 06:41:25;;;;;;;6.97;3.05;;;17.50;96.30;;;;;;5134835;27;20659;-72
2022/04/27 06:43:52;;;;;;;5.15;3.33;;;18.00;96.30;;;;;;5130984;27;20232;-72
2022/04/27 06:46:19;;;;;;;4.93;3.20;;;18.00;96.40;;;;;;5130981;27;20205;-71
2022/04/27 06:48:46;;;;;;;4.85;3.03;;;18.00;95.10;;;;;;5135770;27;20193;-72
2022/04/27 06:51:13;;;;;;;5.63;2.95;;;18.10;95.50;;;;;;5126991;27;20204;-71
2022/04/27 06:53:40;;;;;;;5.30;3.30;;;18.20;94.60;;;;;;5119513;27;20218;-73
2022/04/27 06:56:06;;;;;;;4.35;2.65;;;18.30;94.30;;;;;;5132588;27;20193;-71
2022/04/27 06:58:35;;;;;;;4.53;2.92;;;17.90;94.60;;;;;;5133326;27;20197;-71
2022/04/27 07:01:03;;;;;;;3.92;2.88;;;17.40;95.00;;;;;;5135854;27;20291;-71
2022/04/27 07:03:31;;;;;;;4.00;2.95;;;17.60;94.90;;;;;;5134654;27;20734;-71
2022/04/27 07:05:58;;;;;;;5.18;3.05;;;17.80;94.90;;;;;;5136169;27;20253;-70
2022/04/27 07:08:25;;;;;;;5.63;3.00;;;17.70;94.70;;;;;;5131626;27;20201;-70
2022/04/27 07:10:52;;;;;;;4.32;2.83;;;18.00;94.50;;;;;;5135200;27;20197;-70
2022/04/27 07:13:19;;;;;;;6.40;3.08;;;18.00;94.70;;;;;;5135258;27;20217;-71
2022/04/27 07:15:47;;;;;;;4.28;2.90;;;18.70;93.80;;;;;;5135218;27;20204;-71
2022/04/27 07:18:14;;;;;;;4.80;3.10;;;18.80;93.20;;;;;;5135604;27;20193;-70
2022/04/27 07:20:40;;;;;;;5.97;3.33;;;19.10;93.10;;;;;;5135196;27;20559;-71
2022/04/27 07:23:07;;;;;;;5.55;2.58;;;19.10;93.00;;;;;;5135660;27;20227;-71
2022/04/27 07:25:34;;;;;;;4.82;3.45;;;19.60;92.50;;;;;;5123524;27;20225;-70
2022/04/27 07:28:01;;;;;;;4.00;2.78;;;19.50;92.10;;;;;;5132951;27;20208;-71
2022/04/27 07:30:28;;;;;;;4.35;2.55;;;19.60;92.20;;;;;;5135657;27;20204;-71
2022/04/27 07:32:56;;;;;;;4.03;2.70;;;19.40;92.10;;;;;;5136070;27;20643;-71
2022/04/27 07:35:22;;;;;;;4.43;2.92;;;18.20;92.60;;;;;;5135580;27;20196;-71
2022/04/27 07:37:49;;;;;;;4.32;2.35;;;18.00;93.10;;;;;;5135147;27;20197;-71
2022/04/27 07:40:16;;;;;;;3.67;2.50;;;18.60;93.40;;;;;;5134435;27;20568;-70
2022/04/27 07:42:43;;;;;;;4.68;2.72;;;18.90;92.30;;;;;;5130785;27;20197;-71
2022/04/27 07:45:10;;;;;;;4.00;2.47;;;18.40;92.20;;;;;;5128466;27;20323;-71
2022/04/27 07:47:41;;;;;;;3.70;2.15;;;17.60;92.90;;;;;;5134981;27;20224;-71
2022/04/27 07:50:12;;;;;;;6.70;2.40;;;17.50;93.20;;;;;;5134225;27;20204;-71
2022/04/27 07:52:39;;;;;;;3.90;2.60;;;17.80;93.70;;;;;;5129930;27;20189;-71
2022/04/27 07:55:07;;;;;;;3.45;2.40;;;18.10;93.30;;;;;;5134962;27;20232;-71
2022/04/27 07:57:35;;;;;;;3.42;2.47;;;19.20;92.30;;;;;;5130635;27;20285;-70
2022/04/27 08:00:05;;;;;;;2.85;2.00;;;19.80;91.20;;;;;;5131902;27;20196;-71
2022/04/27 08:02:32;;;;;;;3.80;2.22;;;19.80;90.50;;;;;;5134468;27;20211;-71
2022/04/27 08:05:01;;;;;;;3.15;2.25;;;19.80;90.80;;;;;;5133894;27;20230;-70
2022/04/27 08:07:35;;;;;;;4.35;2.25;;;19.70;90.20;;;;;;5134113;27;20201;-71
2022/04/27 08:10:07;;;;;;;3.60;2.33;;;19.30;91.00;;;;;;5134284;27;20196;-73
2022/04/27 08:12:34;;;;;;;5.95;2.13;;;19.60;90.40;;;;;;5134937;27;20196;-71
2022/04/27 08:15:01;;;;;;;3.65;2.20;;;19.30;90.40;;;;;;5134206;27;20221;-72
2022/04/27 08:17:28;;;;;;;14.68;6.18;;;19.10;91.10;;;;;;5133647;27;20208;-71
2022/04/27 08:21:13;;;;;;;3.70;2.03;;;18.90;91.10;;;;;;5131344;27;20200;-72
2022/04/27 08:22:43;;;;;;;6.47;4.47;;;18.00;91.50;;;;;;5117650;27;20671;-69
2022/04/27 08:25:10;;;;;;;5.18;4.00;;;18.00;91.40;;;;;;5124519;27;20237;-72
2022/04/27 08:27:37;;;;;;;6.63;3.42;;;17.60;91.90;;;;;;5133764;27;20584;-71
2022/04/27 08:30:05;;;;;;;5.07;3.13;;;17.50;91.60;;;;;;5131402;27;20689;-70
2022/04/27 08:32:32;;;;;;;3.05;2.17;;;17.40;92.20;;;;;;5132587;27;20589;-70
2022/04/27 08:34:59;;;;;;;6.28;2.15;;;17.90;91.80;;;;;;5133446;27;20217;-70
2022/04/27 08:37:26;;;;;;;3.15;2.13;;;18.50;91.20;;;;;;5131022;27;20201;-71
2022/04/27 08:39:54;;;;;;;4.07;2.00;;;18.90;90.90;;;;;;5129119;27;20217;-71
2022/04/27 08:42:21;;;;;;;3.78;1.95;;;18.60;91.10;;;;;;5125037;27;20196;-72
2022/04/27 08:44:47;;;;;;;7.07;2.47;;;19.10;90.40;;;;;;5128918;27;20235;-70
2022/04/27 08:47:14;;;;;;;3.30;2.13;;;19.70;89.20;;;;;;5114568;27;20222;-71
2022/04/27 08:49:47;;;;;;;4.72;1.90;;;19.70;90.20;;;;;;5125369;27;20201;-71
2022/04/27 08:52:15;;;;;;;5.30;3.63;;;18.90;90.00;;;;;;5114921;27;20205;-70
2022/04/27 08:54:42;;;;;;;4.25;1.85;;;18.40;90.00;;;;;;5130746;27;20768;-70
2022/04/27 08:57:10;;;;;;;2.63;1.92;;;18.80;90.00;;;;;;5120826;27;20208;-71
2022/04/27 08:59:37;;;;;;;4.00;2.67;;;18.30;89.80;;;;;;5132286;27;20201;-72
2022/04/27 09:02:25;;;;;;;17.90;8.20;;;18.50;90.80;;;;;;5132144;27;20235;-72
2022/04/27 09:05:10;;;;;;;2.55;1.65;;;18.10;89.70;;;;;;5128239;27;20235;-69
2022/04/27 09:07:38;;;;;;;3.78;2.28;;;18.70;88.50;;;;;;5131521;27;20201;-71
2022/04/27 09:10:07;;;;;;;3.42;1.80;;;18.70;90.10;;;;;;5122891;27;20205;-70
2022/04/27 09:12:38;;;;;;;3.65;1.90;;;18.90;88.30;;;;;;5119095;27;20197;-72
2022/04/27 09:15:06;;;;;;;5.25;2.08;;;18.90;87.50;;;;;;5126340;27;20224;-72
2022/04/27 09:23:04;;;;;;;3.42;2.00;;;17.50;90.40;;;;;;5127343;27;20204;-72
2022/04/27 09:25:32;;;;;;;2.90;1.70;;;17.80;90.70;;;;;;5130720;27;20586;-73
2022/04/27 09:28:04;;;;;;;8.48;2.70;;;18.10;87.70;;;;;;5116710;27;20197;-73
2022/04/27 09:30:33;;;;;;;3.80;2.00;;;17.90;89.70;;;;;;5128705;27;20197;-72
2022/04/27 09:33:00;;;;;;;2.38;1.70;;;17.90;90.30;;;;;;5122371;27;20205;-71
2022/04/27 09:35:32;;;;;;;2.20;1.65;;;18.30;89.60;;;;;;5121182;27;20220;-72
2022/04/27 09:38:12;;;;;;;4.38;3.63;;;18.20;88.10;;;;;;5131213;27;20584;-72
2022/04/27 09:40:45;;;;;;;2.07;1.60;;;17.80;88.20;;;;;;5132278;27;20196;-72
2022/04/27 09:43:14;;;;;;;3.10;1.87;;;17.30;90.10;;;;;;5132318;27;20220;-71
2022/04/27 09:45:42;;;;;;;3.30;1.80;;;18.10;88.60;;;;;;5132796;27;20702;-72
2022/04/27 09:48:11;;;;;;;3.20;1.90;;;18.00;89.20;;;;;;5121447;27;20212;-72
2022/04/27 09:50:48;;;;;;;3.70;2.23;;;17.10;89.40;;;;;;5127739;27;20197;-71
2022/04/27 09:53:16;;;;;;;2.57;1.90;;;16.90;90.20;;;;;;5132762;27;20295;-71
2022/04/27 09:55:46;;;;;;;4.40;1.87;;;16.80;90.10;;;;;;5128713;27;20198;-73
2022/04/27 09:58:16;;;;;;;4.27;1.60;;;16.40;90.10;;;;;;5115206;27;20204;-71
2022/04/27 10:00:44;;;;;;;2.67;1.70;;;15.80;90.70;;;;;;5132161;27;20284;-73
2022/04/27 10:03:13;;;;;;;2.10;1.63;;;15.40;91.50;;;;;;5131531;28;20216;-74
2022/04/27 10:05:40;;;;;;;3.43;2.00;;;15.10;91.80;;;;;;5127688;28;20229;-74
2022/04/27 10:08:08;;;;;;;3.03;1.87;;;15.10;92.10;;;;;;5129832;28;20648;-74
2022/04/27 10:10:37;;;;;;;2.83;1.70;;;14.90;92.40;;;;;;5132639;28;20662;-74
2022/04/27 10:13:04;;;;;;;4.30;1.83;;;15.30;92.10;;;;;;5119672;28;20205;-74
2022/04/27 10:15:34;;;;;;;2.63;1.87;;;15.60;91.00;;;;;;5114350;28;20198;-74
2022/04/27 10:18:01;;;;;;;3.70;2.00;;;15.80;91.00;;;;;;5130793;28;20236;-74
2022/04/27 10:20:30;;;;;;;2.67;1.77;;;16.00;90.60;;;;;;5129667;27;20193;-73
2022/04/27 10:23:27;;;;;;;3.20;1.73;;;16.00;91.20;;;;;;5130534;28;20212;-74
2022/04/27 10:26:14;;;;;;;3.63;1.90;;;15.80;91.30;;;;;;5080555;28;20256;-74
2022/04/27 10:28:46;;;;;;;2.47;1.70;;;15.80;91.40;;;;;;5124477;28;20611;-73
2022/04/27 10:31:14;;;;;;;4.90;2.90;;;15.80;91.10;;;;;;5130305;28;20203;-73
2022/04/27 10:33:50;;;;;;;3.30;2.10;;;15.70;90.90;;;;;;5125023;28;20220;-71
2022/04/27 10:36:39;;;;;;;3.23;1.83;;;15.90;91.10;;;;;;5121544;28;20200;-74
2022/04/27 10:39:23;;;;;;;3.07;2.30;;;15.70;91.10;;;;;;5128451;28;20198;-72
2022/04/27 10:42:17;;;;;;;2.63;1.70;;;15.40;92.00;;;;;;5125595;28;20666;-71
2022/04/27 10:45:12;;;;;;;3.37;2.10;;;15.30;92.30;;;;;;5132991;27;20212;-72
2022/04/27 10:47:43;;;;;;;4.27;2.27;;;15.10;91.50;;;;;;5130225;27;20197;-71
2022/04/27 10:50:30;;;;;;;2.70;2.20;;;15.20;91.90;;;;;;5117577;28;20205;-71
2022/04/27 10:53:01;;;;;;;5.33;2.00;;;15.50;92.90;;;;;;5122365;28;20201;-71
2022/04/27 10:55:53;;;;;;;3.67;2.00;;;15.70;92.00;;;;;;5126483;28;20224;-71
2022/04/27 10:58:30;;;;;;;2.77;1.70;;;16.00;91.40;;;;;;5119870;27;20194;-71
2022/04/27 11:01:30;;;;;;;16.87;6.47;;;15.80;92.10;;;;;;5117204;28;20204;-71
2022/04/27 11:04:08;;;;;;;7.03;3.53;;;15.50;91.70;;;;;;5128745;28;20270;-71
2022/04/27 11:07:04;;;;;;;14.63;4.87;;;15.40;91.90;;;;;;5131118;27;20633;-71
2022/04/27 11:09:45;;;;;;;3.43;2.10;;;15.30;92.20;;;;;;5127964;27;20229;-71
2022/04/27 11:12:14;;;;;;;4.50;2.50;;;15.40;91.90;;;;;;5127534;27;20669;-71
2022/04/27 11:14:42;;;;;;;2.63;2.03;;;15.80;91.40;;;;;;5134507;27;20748;-71
2022/04/27 11:17:10;;;;;;;2.77;2.03;;;16.00;90.90;;;;;;5134771;27;20582;-70
2022/04/27 11:19:38;;;;;;;3.37;2.30;;;16.00;91.30;;;;;;5135953;27;20204;-70
2022/04/27 11:22:12;;;;;;;3.87;2.40;;;16.00;91.00;;;;;;5131116;27;20200;-70
2022/04/27 11:24:40;;;;;;;5.13;2.13;;;16.10;91.10;;;;;;5129995;27;20703;-70
2022/04/27 11:27:08;;;;;;;4.73;2.40;;;16.20;91.40;;;;;;5123942;27;20221;-69
2022/04/27 11:29:36;;;;;;;4.27;2.30;;;16.20;91.10;;;;;;5122712;27;20280;-70
2022/04/27 11:32:07;;;;;;;3.93;2.37;;;16.10;90.70;;;;;;5134764;27;20235;-70
2022/04/27 11:34:35;;;;;;;3.23;2.30;;;16.00;90.80;;;;;;5135249;27;20216;-70
2022/04/27 11:37:15;;;;;;;3.60;2.30;;;16.10;91.30;;;;;;5121747;27;20214;-70
2022/04/27 11:39:41;;;;;;;3.00;2.00;;;16.00;91.10;;;;;;5130809;27;20216;-70
2022/04/27 11:42:10;;;;;;;4.30;2.00;;;16.10;92.00;;;;;;5122836;27;20219;-70
2022/04/27 11:44:37;;;;;;;5.87;2.60;;;16.20;91.60;;;;;;5134814;27;20219;-70
2022/04/27 11:47:04;;;;;;;4.80;2.47;;;16.20;91.50;;;;;;5134978;27;20232;-70
2022/04/27 11:49:30;;;;;;;3.23;2.37;;;16.50;92.00;;;;;;5134557;27;20213;-70
2022/04/27 11:51:59;;;;;;;5.33;2.50;;;16.10;91.10;;;;;;5134883;27;20566;-70
2022/04/27 11:54:27;;;;;;;4.73;2.50;;;16.00;92.00;;;;;;5134679;27;20297;-70
2022/04/27 11:56:59;;;;;;;3.30;2.20;;;16.00;91.20;;;;;;5127614;27;20250;-70
2022/04/27 11:59:40;;;;;;;4.07;2.60;;;16.00;91.70;;;;;;5128446;27;20204;-70
2022/04/27 12:02:08;;;;;;;4.00;2.20;;;16.20;91.70;;;;;;5117767;27;20211;-71
2022/04/27 12:04:36;;;;;;;3.20;2.23;;;16.40;91.80;;;;;;5134494;27;20217;-71
2022/04/27 12:07:11;;;;;;;4.43;2.43;;;16.60;90.60;;;;;;5133959;27;20274;-70
2022/04/27 12:09:38;;;;;;;3.70;2.33;;;16.40;90.40;;;;;;5134878;27;20196;-69
2022/04/27 12:12:11;;;;;;;4.13;2.70;;;16.40;91.10;;;;;;5133896;27;20193;-69
2022/04/27 12:14:38;;;;;;;4.90;3.07;;;16.50;90.70;;;;;;5126556;27;20278;-69
2022/04/27 12:17:06;;;;;;;5.83;3.00;;;16.30;90.30;;;;;;5126241;27;20555;-70
2022/04/27 12:19:33;;;;;;;5.53;2.77;;;16.20;90.80;;;;;;5133995;27;20197;-70
2022/04/27 12:22:15;;;;;;;5.80;2.80;;;16.20;91.20;;;;;;5135035;27;20233;-70
2022/04/27 12:24:45;;;;;;;5.90;2.70;;;16.70;91.30;;;;;;5129845;27;20300;-70
2022/04/27 12:27:19;;;;;;;8.53;3.07;;;16.90;91.10;;;;;;5128016;27;20257;-69
2022/04/27 12:29:46;;;;;;;3.47;2.67;;;16.50;90.90;;;;;;5132226;27;20228;-70
2022/04/27 12:32:13;;;;;;;2.60;2.10;;;16.70;90.20;;;;;;5134794;27;20193;-70
2022/04/27 12:37:36;;;;;;;3.63;2.40;;;16.80;90.60;;;;;;5096437;27;20197;-70
2022/04/27 12:40:14;;;;;;;3.83;2.60;;;16.70;91.00;;;;;;5134488;27;20197;-70
2022/04/27 12:42:59;;;;;;;4.63;2.47;;;16.50;91.10;;;;;;5133710;27;20192;-70
2022/04/27 12:45:26;;;;;;;5.77;3.20;;;16.50;91.10;;;;;;5126092;27;20656;-69
2022/04/27 12:47:53;;;;;;;3.57;2.37;;;16.60;90.80;;;;;;5125418;27;20196;-70
2022/04/27 12:50:20;;;;;;;6.03;2.70;;;16.80;90.40;;;;;;5123999;27;20193;-70
2022/04/27 12:52:49;;;;;;;6.57;2.80;;;16.90;90.60;;;;;;5124501;27;20196;-70
2022/04/27 12:55:17;;;;;;;4.63;2.53;;;16.90;91.50;;;;;;5124408;27;20213;-70
2022/04/27 12:57:45;;;;;;;6.27;2.83;;;16.90;90.20;;;;;;5121569;27;20204;-70
2022/04/27 13:00:13;;;;;;;3.37;2.60;;;16.90;91.20;;;;;;5125369;27;20185;-70
2022/04/27 13:02:40;;;;;;;3.73;2.43;;;16.90;90.50;;;;;;5123509;27;20213;-70
2022/04/27 13:05:09;;;;;;;4.37;2.50;;;17.10;91.00;;;;;;5119423;27;20217;-70
2022/04/27 13:07:36;;;;;;;3.53;2.60;;;17.10;90.10;;;;;;5122023;27;20217;-70
2022/04/27 13:12:51;;;;;;;4.37;3.47;;;16.90;90.00;;;;;;5123824;27;20286;-70
2022/04/27 13:15:18;;;;;;;4.87;2.60;;;17.00;89.10;;;;;;5123697;27;20202;-70
2022/04/27 13:17:45;;;;;;;5.00;3.00;;;17.10;89.50;;;;;;5124458;27;20659;-71
2022/04/27 13:20:12;;;;;;;5.10;2.90;;;17.10;89.00;;;;;;5125571;27;20193;-70
2022/04/27 13:22:40;;;;;;;5.00;3.03;;;17.10;90.50;;;;;;5119417;27;20878;-70
2022/04/27 13:25:09;;;;;;;4.77;3.07;;;17.10;90.50;;;;;;5123357;27;20223;-70
2022/04/27 13:27:36;;;;;;;6.10;2.70;;;17.10;90.10;;;;;;5124363;27;20277;-70